sensor_id;sensor_type;location;lat;lon;timestamp;pressure;altitude;pressure_sealevel;temperature;humidity
72857;BME280;62742;52.136;4.500;2023-04-15T00:00:28;100920.56;;;8.98;64.22
72857;BME280;62742;52.136;4.500;2023-04-15T00:02:55;100920.50;;;9.06;64.06
72857;BME280;62742;52.136;4.500;2023-04-15T00:05:21;100911.81;;;9.02;64.23
72857;BME280;62742;52.136;4.500;2023-04-15T00:07:47;100916.31;;;8.83;65.55
72857;BME280;62742;52.136;4.500;2023-04-15T00:10:13;100912.78;;;8.89;65.43
72857;BME280;62742;52.136;4.500;2023-04-15T00:12:39;100913.53;;;9.00;64.74
72857;BME280;62742;52.136;4.500;2023-04-15T00:15:06;100921.50;;;8.89;65.32
72857;BME280;62742;52.136;4.500;2023-04-15T00:17:34;100923.16;;;9.01;64.38
72857;BME280;62742;52.136;4.500;2023-04-15T00:20:00;100919.72;;;8.93;64.92
72857;BME280;62742;52.136;4.500;2023-04-15T00:22:27;100923.19;;;8.98;64.63
72857;BME280;62742;52.136;4.500;2023-04-15T00:24:53;100917.19;;;8.80;65.18
72857;BME280;62742;52.136;4.500;2023-04-15T00:27:19;100920.75;;;8.73;65.67
72857;BME280;62742;52.136;4.500;2023-04-15T00:29:45;100923.41;;;8.69;65.71
72857;BME280;62742;52.136;4.500;2023-04-15T00:32:11;100918.13;;;8.72;65.57
72857;BME280;62742;52.136;4.500;2023-04-15T00:34:38;100922.56;;;8.59;66.22
72857;BME280;62742;52.136;4.500;2023-04-15T00:37:04;100928.66;;;8.66;66.17
72857;BME280;62742;52.136;4.500;2023-04-15T00:39:30;100926.09;;;8.61;66.02
72857;BME280;62742;52.136;4.500;2023-04-15T00:41:56;100936.66;;;8.33;66.61
72857;BME280;62742;52.136;4.500;2023-04-15T00:44:22;100931.50;;;8.16;67.70
72857;BME280;62742;52.136;4.500;2023-04-15T00:46:50;100934.94;;;8.23;67.00
72857;BME280;62742;52.136;4.500;2023-04-15T00:49:16;100928.88;;;8.19;66.85
72857;BME280;62742;52.136;4.500;2023-04-15T00:51:44;100926.28;;;8.13;67.18
72857;BME280;62742;52.136;4.500;2023-04-15T00:54:10;100926.25;;;8.18;67.13
72857;BME280;62742;52.136;4.500;2023-04-15T00:56:37;100929.81;;;8.01;67.90
72857;BME280;62742;52.136;4.500;2023-04-15T00:59:04;100921.06;;;8.05;67.13
72857;BME280;62742;52.136;4.500;2023-04-15T01:01:33;100922.84;;;8.05;66.93
72857;BME280;62742;52.136;4.500;2023-04-15T01:04:00;100923.69;;;8.07;67.29
72857;BME280;62742;52.136;4.500;2023-04-15T01:06:27;100928.97;;;7.98;67.49
72857;BME280;62742;52.136;4.500;2023-04-15T01:08:56;100937.69;;;8.03;67.83
72857;BME280;62742;52.136;4.500;2023-04-15T01:11:23;100934.16;;;8.13;67.06
72857;BME280;62742;52.136;4.500;2023-04-15T01:13:50;100935.94;;;8.00;67.00
72857;BME280;62742;52.136;4.500;2023-04-15T01:16:17;100935.91;;;8.10;66.88
72857;BME280;62742;52.136;4.500;2023-04-15T01:18:44;100935.06;;;7.95;67.13
72857;BME280;62742;52.136;4.500;2023-04-15T01:21:11;100935.06;;;7.95;67.27
72857;BME280;62742;52.136;4.500;2023-04-15T01:23:38;100937.72;;;7.83;67.59
72857;BME280;62742;52.136;4.500;2023-04-15T01:26:07;100931.59;;;7.87;67.84
72857;BME280;62742;52.136;4.500;2023-04-15T01:28:34;100937.72;;;7.88;67.86
72857;BME280;62742;52.136;4.500;2023-04-15T01:31:05;100928.16;;;7.70;68.94
72857;BME280;62742;52.136;4.500;2023-04-15T01:33:36;100934.25;;;7.73;68.35
72857;BME280;62742;52.136;4.500;2023-04-15T01:36:03;100934.22;;;7.95;67.31
72857;BME280;62742;52.136;4.500;2023-04-15T01:38:31;100929.88;;;7.89;67.60
72857;BME280;62742;52.136;4.500;2023-04-15T01:40:58;100932.44;;;7.97;67.65
72857;BME280;62742;52.136;4.500;2023-04-15T01:43:24;100935.97;;;7.91;67.47
72857;BME280;62742;52.136;4.500;2023-04-15T01:45:51;100933.34;;;7.80;68.20
72857;BME280;62742;52.136;4.500;2023-04-15T01:48:17;100933.41;;;7.76;68.20
72857;BME280;62742;52.136;4.500;2023-04-15T01:50:44;100943.00;;;7.69;68.34
72857;BME280;62742;52.136;4.500;2023-04-15T01:53:10;100938.63;;;7.76;68.64
72857;BME280;62742;52.136;4.500;2023-04-15T01:55:36;100937.78;;;7.72;68.68
72857;BME280;62742;52.136;4.500;2023-04-15T01:58:02;100942.09;;;7.81;68.67
72857;BME280;62742;52.136;4.500;2023-04-15T02:00:29;100932.53;;;7.66;68.76
72857;BME280;62742;52.136;4.500;2023-04-15T02:02:57;100946.47;;;7.70;69.01
72857;BME280;62742;52.136;4.500;2023-04-15T02:05:24;100951.75;;;7.57;69.74
72857;BME280;62742;52.136;4.500;2023-04-15T02:07:50;100950.00;;;7.41;71.00
72857;BME280;62742;52.136;4.500;2023-04-15T02:10:17;100945.63;;;7.43;70.72
72857;BME280;62742;52.136;4.500;2023-04-15T02:12:43;100944.75;;;7.59;70.12
72857;BME280;62742;52.136;4.500;2023-04-15T02:15:09;100943.88;;;7.49;70.47
72857;BME280;62742;52.136;4.500;2023-04-15T02:17:35;100943.88;;;7.51;70.28
72857;BME280;62742;52.136;4.500;2023-04-15T02:20:02;100956.09;;;7.46;70.63
72857;BME280;62742;52.136;4.500;2023-04-15T02:22:33;100953.50;;;7.51;70.50
72857;BME280;62742;52.136;4.500;2023-04-15T02:24:59;100957.81;;;7.68;69.81
72857;BME280;62742;52.136;4.500;2023-04-15T02:27:25;100955.22;;;7.55;70.39
72857;BME280;62742;52.136;4.500;2023-04-15T02:29:55;100966.53;;;7.60;70.02
72857;BME280;62742;52.136;4.500;2023-04-15T02:32:21;100960.44;;;7.64;69.98
72857;BME280;62742;52.136;4.500;2023-04-15T02:34:49;100968.31;;;7.52;70.36
72857;BME280;62742;52.136;4.500;2023-04-15T02:37:15;100969.19;;;7.57;70.64
72857;BME280;62742;52.136;4.500;2023-04-15T02:39:43;100981.38;;;7.65;70.58
72857;BME280;62742;52.136;4.500;2023-04-15T02:42:10;100980.50;;;7.49;70.97
72857;BME280;62742;52.136;4.500;2023-04-15T02:44:36;100982.25;;;7.52;71.13
72857;BME280;62742;52.136;4.500;2023-04-15T02:47:02;100979.63;;;7.52;71.49
72857;BME280;62742;52.136;4.500;2023-04-15T02:49:31;100977.91;;;7.45;71.99
72857;BME280;62742;52.136;4.500;2023-04-15T02:51:57;100984.84;;;7.61;72.15
72857;BME280;62742;52.136;4.500;2023-04-15T02:54:24;100982.22;;;7.58;72.20
72857;BME280;62742;52.136;4.500;2023-04-15T02:56:53;100990.97;;;7.60;72.44
72857;BME280;62742;52.136;4.500;2023-04-15T02:59:22;100994.47;;;7.50;72.36
72857;BME280;62742;52.136;4.500;2023-04-15T03:01:48;100988.34;;;7.45;72.70
72857;BME280;62742;52.136;4.500;2023-04-15T03:04:15;100990.94;;;7.51;72.54
72857;BME280;62742;52.136;4.500;2023-04-15T03:06:41;100999.69;;;7.47;72.83
72857;BME280;62742;52.136;4.500;2023-04-15T03:09:07;100990.97;;;7.45;73.24
72857;BME280;62742;52.136;4.500;2023-04-15T03:11:34;100993.59;;;7.43;73.42
72857;BME280;62742;52.136;4.500;2023-04-15T03:14:05;100996.19;;;7.48;73.59
72857;BME280;62742;52.136;4.500;2023-04-15T03:16:31;100993.59;;;7.28;74.10
72857;BME280;62742;52.136;4.500;2023-04-15T03:18:57;101000.56;;;7.35;73.71
72857;BME280;62742;52.136;4.500;2023-04-15T03:21:23;101003.19;;;7.40;73.74
72857;BME280;62742;52.136;4.500;2023-04-15T03:23:49;101005.78;;;7.41;73.86
72857;BME280;62742;52.136;4.500;2023-04-15T03:26:25;101005.78;;;7.38;73.87
72857;BME280;62742;52.136;4.500;2023-04-15T03:28:56;101010.13;;;7.41;74.21
72857;BME280;62742;52.136;4.500;2023-04-15T03:31:23;101001.44;;;7.45;73.98
72857;BME280;62742;52.136;4.500;2023-04-15T03:33:52;101011.00;;;7.35;74.45
72857;BME280;62742;52.136;4.500;2023-04-15T03:36:18;101014.50;;;7.29;74.90
72857;BME280;62742;52.136;4.500;2023-04-15T03:38:44;101011.88;;;7.29;74.99
72857;BME280;62742;52.136;4.500;2023-04-15T03:41:11;101012.75;;;7.32;74.93
72857;BME280;62742;52.136;4.500;2023-04-15T03:43:37;101015.38;;;7.32;75.20
72857;BME280;62742;52.136;4.500;2023-04-15T03:46:03;101019.72;;;7.39;75.04
72857;BME280;62742;52.136;4.500;2023-04-15T03:48:30;101024.94;;;7.36;75.09
72857;BME280;62742;52.136;4.500;2023-04-15T03:50:56;101024.97;;;7.31;75.67
72857;BME280;62742;52.136;4.500;2023-04-15T03:53:22;101028.41;;;7.21;76.18
72857;BME280;62742;52.136;4.500;2023-04-15T03:55:49;101034.53;;;7.30;75.94
72857;BME280;62742;52.136;4.500;2023-04-15T03:58:15;101037.13;;;7.32;76.43
72857;BME280;62742;52.136;4.500;2023-04-15T04:00:41;101035.38;;;7.33;76.48
72857;BME280;62742;52.136;4.500;2023-04-15T04:03:07;101036.28;;;7.33;76.63
72857;BME280;62742;52.136;4.500;2023-04-15T04:05:33;101044.97;;;7.30;76.68
72857;BME280;62742;52.136;4.500;2023-04-15T04:08:03;101044.97;;;7.30;77.07
72857;BME280;62742;52.136;4.500;2023-04-15T04:10:30;101054.56;;;7.19;77.53
72857;BME280;62742;52.136;4.500;2023-04-15T04:12:56;101050.19;;;7.30;77.55
72857;BME280;62742;52.136;4.500;2023-04-15T04:15:22;101057.16;;;7.25;77.52
72857;BME280;62742;52.136;4.500;2023-04-15T04:17:49;101063.25;;;7.14;78.19
72857;BME280;62742;52.136;4.500;2023-04-15T04:20:15;101064.97;;;7.08;78.38
72857;BME280;62742;52.136;4.500;2023-04-15T04:22:41;101064.13;;;7.14;78.09
72857;BME280;62742;52.136;4.500;2023-04-15T04:25:08;101063.25;;;7.17;78.25
72857;BME280;62742;52.136;4.500;2023-04-15T04:27:35;101072.84;;;7.13;78.19
72857;BME280;62742;52.136;4.500;2023-04-15T04:30:01;101072.81;;;7.07;78.72
72857;BME280;62742;52.136;4.500;2023-04-15T04:32:27;101071.09;;;7.18;78.16
72857;BME280;62742;52.136;4.500;2023-04-15T04:34:54;101082.41;;;7.16;78.53
72857;BME280;62742;52.136;4.500;2023-04-15T04:37:20;101081.56;;;7.24;77.78
72857;BME280;62742;52.136;4.500;2023-04-15T04:39:48;101091.97;;;7.12;78.24
72857;BME280;62742;52.136;4.500;2023-04-15T04:42:14;101092.81;;;6.94;79.58
72857;BME280;62742;52.136;4.500;2023-04-15T04:44:40;101100.66;;;6.96;79.67
72857;BME280;62742;52.136;4.500;2023-04-15T04:47:06;101104.97;;;6.89;79.96
72857;BME280;62742;52.136;4.500;2023-04-15T04:49:32;101105.91;;;6.99;79.20
72857;BME280;62742;52.136;4.500;2023-04-15T04:51:59;101108.53;;;7.06;79.26
72857;BME280;62742;52.136;4.500;2023-04-15T04:54:25;101110.28;;;7.14;78.86
72857;BME280;62742;52.136;4.500;2023-04-15T04:56:52;101122.50;;;7.15;78.75
72857;BME280;62742;52.136;4.500;2023-04-15T04:59:18;101121.59;;;7.08;78.80
72857;BME280;62742;52.136;4.500;2023-04-15T05:01:45;101121.59;;;7.08;78.64
72857;BME280;62742;52.136;4.500;2023-04-15T05:04:11;101132.91;;;7.11;78.95
72857;BME280;62742;52.136;4.500;2023-04-15T05:06:37;101128.59;;;7.27;78.22
72857;BME280;62742;52.136;4.500;2023-04-15T05:09:03;101140.78;;;7.16;78.90
72857;BME280;62742;52.136;4.500;2023-04-15T05:11:29;101141.63;;;7.04;79.11
72857;BME280;62742;52.136;4.500;2023-04-15T05:13:56;101146.84;;;7.06;79.42
72857;BME280;62742;52.136;4.500;2023-04-15T05:16:22;101147.69;;;7.05;79.56
72857;BME280;62742;52.136;4.500;2023-04-15T05:18:50;101156.47;;;7.16;79.00
72857;BME280;62742;52.136;4.500;2023-04-15T05:21:16;101161.75;;;7.32;78.54
72857;BME280;62742;52.136;4.500;2023-04-15T05:23:43;101163.50;;;7.39;78.40
72857;BME280;62742;52.136;4.500;2023-04-15T05:26:09;101167.88;;;7.38;78.20
72857;BME280;62742;52.136;4.500;2023-04-15T05:28:36;101173.97;;;7.42;78.85
72857;BME280;62742;52.136;4.500;2023-04-15T05:31:02;101179.16;;;7.36;79.05
72857;BME280;62742;52.136;4.500;2023-04-15T05:33:28;101186.16;;;7.37;79.27
72857;BME280;62742;52.136;4.500;2023-04-15T05:35:54;101182.69;;;7.48;78.90
72857;BME280;62742;52.136;4.500;2023-04-15T05:38:21;101191.44;;;7.74;78.21
72857;BME280;62742;52.136;4.500;2023-04-15T05:40:47;101200.19;;;7.85;77.47
72857;BME280;62742;52.136;4.500;2023-04-15T05:43:13;101204.56;;;7.88;77.29
72857;BME280;62742;52.136;4.500;2023-04-15T05:45:39;101208.09;;;7.94;77.25
72857;BME280;62742;52.136;4.500;2023-04-15T05:48:05;101206.31;;;8.05;77.17
72857;BME280;62742;52.136;4.500;2023-04-15T05:50:32;101219.41;;;8.10;77.39
72857;BME280;62742;52.136;4.500;2023-04-15T05:52:58;101216.78;;;8.16;76.95
72857;BME280;62742;52.136;4.500;2023-04-15T05:55:24;101223.78;;;8.33;76.91
72857;BME280;62742;52.136;4.500;2023-04-15T05:57:51;101225.53;;;8.65;75.53
72857;BME280;62742;52.136;4.500;2023-04-15T06:00:17;101240.34;;;8.92;74.47
72857;BME280;62742;52.136;4.500;2023-04-15T06:02:43;101244.66;;;9.11;73.66
72857;BME280;62742;52.136;4.500;2023-04-15T06:05:10;101248.91;;;9.37;72.50
72857;BME280;62742;52.136;4.500;2023-04-15T06:07:37;101258.50;;;9.49;72.26
72857;BME280;62742;52.136;4.500;2023-04-15T06:10:03;101257.41;;;9.84;71.55
72857;BME280;62742;52.136;4.500;2023-04-15T06:12:30;101261.94;;;9.60;72.07
72857;BME280;62742;52.136;4.500;2023-04-15T06:14:57;101272.22;;;10.00;70.08
72857;BME280;62742;52.136;4.500;2023-04-15T06:17:23;101273.03;;;10.11;70.96
72857;BME280;62742;52.136;4.500;2023-04-15T06:19:51;101276.44;;;10.21;69.33
72857;BME280;62742;52.136;4.500;2023-04-15T06:22:21;101286.09;;;10.16;69.35
72857;BME280;62742;52.136;4.500;2023-04-15T06:24:48;101292.94;;;10.42;68.76
72857;BME280;62742;52.136;4.500;2023-04-15T06:27:16;101306.22;;;10.23;68.74
72857;BME280;62742;52.136;4.500;2023-04-15T06:29:42;101308.88;;;10.13;71.10
72857;BME280;62742;52.136;4.500;2023-04-15T06:32:08;101309.50;;;10.53;68.52
72857;BME280;62742;52.136;4.500;2023-04-15T06:34:35;101305.94;;;10.60;69.07
72857;BME280;62742;52.136;4.500;2023-04-15T06:37:01;101309.94;;;11.01;67.36
72857;BME280;62742;52.136;4.500;2023-04-15T06:39:28;101317.25;;;11.57;67.10
72857;BME280;62742;52.136;4.500;2023-04-15T06:41:54;101313.34;;;11.16;66.39
72857;BME280;62742;52.136;4.500;2023-04-15T06:44:21;101323.69;;;11.30;66.08
72857;BME280;62742;52.136;4.500;2023-04-15T06:46:47;101328.03;;;11.34;65.32
72857;BME280;62742;52.136;4.500;2023-04-15T06:49:13;101322.56;;;11.51;66.11
72857;BME280;62742;52.136;4.500;2023-04-15T06:51:41;101335.94;;;12.08;64.51
72857;BME280;62742;52.136;4.500;2023-04-15T06:54:07;101323.03;;;12.49;62.48
72857;BME280;62742;52.136;4.500;2023-04-15T06:56:33;101338.28;;;12.28;62.57
72857;BME280;62742;52.136;4.500;2023-04-15T06:59:00;101343.22;;;11.85;63.98
72857;BME280;62742;52.136;4.500;2023-04-15T07:01:26;101342.28;;;11.90;63.50
72857;BME280;62742;52.136;4.500;2023-04-15T07:03:53;101351.09;;;11.91;63.80
72857;BME280;62742;52.136;4.500;2023-04-15T07:06:19;101342.19;;;12.00;63.68
72857;BME280;62742;52.136;4.500;2023-04-15T07:08:46;101353.22;;;12.28;62.60
72857;BME280;62742;52.136;4.500;2023-04-15T07:11:13;101350.72;;;11.46;64.54
72857;BME280;62742;52.136;4.500;2023-04-15T07:13:39;101358.56;;;12.25;65.19
72857;BME280;62742;52.136;4.500;2023-04-15T07:16:06;101356.19;;;12.64;61.62
72857;BME280;62742;52.136;4.500;2023-04-15T07:18:32;101361.69;;;11.83;63.38
72857;BME280;62742;52.136;4.500;2023-04-15T07:20:58;101365.94;;;11.96;63.99
72857;BME280;62742;52.136;4.500;2023-04-15T07:23:25;101364.03;;;12.09;63.89
72857;BME280;62742;52.136;4.500;2023-04-15T07:25:51;101372.34;;;12.42;62.79
72857;BME280;62742;52.136;4.500;2023-04-15T07:28:17;101380.06;;;12.54;62.97
72857;BME280;62742;52.136;4.500;2023-04-15T07:30:43;101383.75;;;12.41;62.04
72857;BME280;62742;52.136;4.500;2023-04-15T07:33:10;101386.09;;;12.63;62.29
72857;BME280;62742;52.136;4.500;2023-04-15T07:35:36;101397.66;;;12.54;61.86
72857;BME280;62742;52.136;4.500;2023-04-15T07:38:03;101402.63;;;12.12;63.55
72857;BME280;62742;52.136;4.500;2023-04-15T07:40:29;101406.06;;;12.17;64.28
72857;BME280;62742;52.136;4.500;2023-04-15T07:42:55;101405.66;;;12.46;63.57
72857;BME280;62742;52.136;4.500;2023-04-15T07:45:23;101415.75;;;12.77;60.87
72857;BME280;62742;52.136;4.500;2023-04-15T07:47:49;101411.44;;;12.71;61.77
72857;BME280;62742;52.136;4.500;2023-04-15T07:50:16;101419.28;;;12.76;61.41
72857;BME280;62742;52.136;4.500;2023-04-15T07:52:43;101422.31;;;12.48;61.31
72857;BME280;62742;52.136;4.500;2023-04-15T07:55:09;101428.53;;;12.44;62.36
72857;BME280;62742;52.136;4.500;2023-04-15T07:57:35;101440.25;;;12.23;61.62
72857;BME280;62742;52.136;4.500;2023-04-15T08:00:02;101436.50;;;12.38;62.65
72857;BME280;62742;52.136;4.500;2023-04-15T08:02:32;101439.44;;;12.16;62.54
72857;BME280;62742;52.136;4.500;2023-04-15T08:04:58;101438.25;;;13.00;61.35
72857;BME280;62742;52.136;4.500;2023-04-15T08:07:24;101447.34;;;13.38;60.38
72857;BME280;62742;52.136;4.500;2023-04-15T08:09:51;101454.03;;;13.03;59.58
72857;BME280;62742;52.136;4.500;2023-04-15T08:12:17;101461.16;;;12.98;59.52
72857;BME280;62742;52.136;4.500;2023-04-15T08:14:43;101462.84;;;12.41;60.04
72857;BME280;62742;52.136;4.500;2023-04-15T08:17:10;101480.63;;;12.89;58.88
72857;BME280;62742;52.136;4.500;2023-04-15T08:19:36;101473.38;;;12.41;59.63
72857;BME280;62742;52.136;4.500;2023-04-15T08:22:03;101480.97;;;12.66;58.54
72857;BME280;62742;52.136;4.500;2023-04-15T08:24:30;101478.03;;;12.86;59.54
72857;BME280;62742;52.136;4.500;2023-04-15T08:26:56;101480.44;;;13.01;58.37
72857;BME280;62742;52.136;4.500;2023-04-15T08:29:22;101481.44;;;12.94;59.47
72857;BME280;62742;52.136;4.500;2023-04-15T08:31:48;101482.25;;;13.54;59.35
72857;BME280;62742;52.136;4.500;2023-04-15T08:34:15;101487.16;;;13.75;57.52
72857;BME280;62742;52.136;4.500;2023-04-15T08:36:41;101488.34;;;13.57;57.08
72857;BME280;62742;52.136;4.500;2023-04-15T08:39:08;101498.00;;;13.04;57.61
72857;BME280;62742;52.136;4.500;2023-04-15T08:42:09;101499.22;;;13.39;57.45
72857;BME280;62742;52.136;4.500;2023-04-15T08:44:28;101508.06;;;12.76;57.56
72857;BME280;62742;52.136;4.500;2023-04-15T08:46:59;101516.53;;;12.99;56.67
72857;BME280;62742;52.136;4.500;2023-04-15T08:49:27;101514.22;;;12.76;57.82
72857;BME280;62742;52.136;4.500;2023-04-15T08:51:54;101524.88;;;13.29;56.96
72857;BME280;62742;52.136;4.500;2023-04-15T08:54:23;101521.13;;;13.45;55.48
72857;BME280;62742;52.136;4.500;2023-04-15T08:56:49;101529.25;;;13.33;57.87
72857;BME280;62742;52.136;4.500;2023-04-15T08:59:17;101517.34;;;13.60;56.74
72857;BME280;62742;52.136;4.500;2023-04-15T09:01:46;101530.56;;;13.59;57.50
72857;BME280;62742;52.136;4.500;2023-04-15T09:04:13;101531.22;;;14.20;56.41
72857;BME280;62742;52.136;4.500;2023-04-15T09:06:39;101536.84;;;14.03;54.36
72857;BME280;62742;52.136;4.500;2023-04-15T09:09:06;101532.16;;;13.69;55.24
72857;BME280;62742;52.136;4.500;2023-04-15T09:11:32;101534.78;;;14.17;54.68
72857;BME280;62742;52.136;4.500;2023-04-15T09:13:59;101536.91;;;13.98;55.00
72857;BME280;62742;52.136;4.500;2023-04-15T09:16:25;101543.59;;;14.18;53.84
72857;BME280;62742;52.136;4.500;2023-04-15T09:18:52;101550.69;;;14.63;52.23
72857;BME280;62742;52.136;4.500;2023-04-15T09:21:19;101547.06;;;14.65;50.84
72857;BME280;62742;52.136;4.500;2023-04-15T09:23:57;101543.63;;;14.16;51.89
72857;BME280;62742;52.136;4.500;2023-04-15T09:26:34;101561.56;;;14.46;50.83
72857;BME280;62742;52.136;4.500;2023-04-15T09:29:02;101568.16;;;14.25;52.29
72857;BME280;62742;52.136;4.500;2023-04-15T09:31:31;101570.81;;;14.68;52.09
72857;BME280;62742;52.136;4.500;2023-04-15T09:33:58;101568.69;;;14.42;52.88
72857;BME280;62742;52.136;4.500;2023-04-15T09:36:24;101570.50;;;14.84;49.35
72857;BME280;62742;52.136;4.500;2023-04-15T09:38:58;101588.25;;;14.78;46.99
72857;BME280;62742;52.136;4.500;2023-04-15T09:41:25;101593.34;;;14.43;47.77
72857;BME280;62742;52.136;4.500;2023-04-15T09:43:52;101596.53;;;14.62;49.70
72857;BME280;62742;52.136;4.500;2023-04-15T09:46:18;101591.13;;;14.68;49.17
72857;BME280;62742;52.136;4.500;2023-04-15T09:48:45;101592.03;;;14.65;48.80
72857;BME280;62742;52.136;4.500;2023-04-15T09:51:11;101592.84;;;14.24;49.18
72857;BME280;62742;52.136;4.500;2023-04-15T09:53:37;101595.19;;;14.39;50.29
72857;BME280;62742;52.136;4.500;2023-04-15T09:56:03;101606.41;;;15.36;49.80
72857;BME280;62742;52.136;4.500;2023-04-15T09:58:32;101599.88;;;14.25;47.75
72857;BME280;62742;52.136;4.500;2023-04-15T10:01:02;101609.16;;;15.31;48.57
72857;BME280;62742;52.136;4.500;2023-04-15T10:03:30;101603.63;;;15.03;46.30
72857;BME280;62742;52.136;4.500;2023-04-15T10:05:59;101612.78;;;15.27;48.90
72857;BME280;62742;52.136;4.500;2023-04-15T10:08:27;101616.28;;;15.28;46.75
72857;BME280;62742;52.136;4.500;2023-04-15T10:10:55;101608.41;;;15.25;47.57
72857;BME280;62742;52.136;4.500;2023-04-15T10:13:25;101618.94;;;15.28;47.36
72857;BME280;62742;52.136;4.500;2023-04-15T10:15:57;101615.59;;;15.20;46.95
72857;BME280;62742;52.136;4.500;2023-04-15T10:18:26;101616.69;;;15.09;44.98
72857;BME280;62742;52.136;4.500;2023-04-15T10:20:53;101627.53;;;15.39;47.56
72857;BME280;62742;52.136;4.500;2023-04-15T10:23:21;101625.53;;;15.86;49.53
72857;BME280;62742;52.136;4.500;2023-04-15T10:25:50;101623.03;;;15.80;46.95
72857;BME280;62742;52.136;4.500;2023-04-15T10:28:17;101626.81;;;16.39;45.63
72857;BME280;62742;52.136;4.500;2023-04-15T10:30:45;101620.81;;;16.32;47.01
72857;BME280;62742;52.136;4.500;2023-04-15T10:33:12;101625.84;;;16.41;47.50
72857;BME280;62742;52.136;4.500;2023-04-15T10:35:41;101627.09;;;16.92;47.86
72857;BME280;62742;52.136;4.500;2023-04-15T10:41:20;101627.88;;;16.96;44.58
72857;BME280;62742;52.136;4.500;2023-04-15T10:44:01;101628.09;;;16.24;46.54
72857;BME280;62742;52.136;4.500;2023-04-15T10:46:39;101631.19;;;16.73;45.30
72857;BME280;62742;52.136;4.500;2023-04-15T10:51:39;101637.47;;;17.01;45.69
72857;BME280;62742;52.136;4.500;2023-04-15T10:54:08;101644.25;;;16.79;45.70
72857;BME280;62742;52.136;4.500;2023-04-15T10:56:50;101638.31;;;15.67;48.62
72857;BME280;62742;52.136;4.500;2023-04-15T11:00:18;101645.91;;;15.84;46.73
72857;BME280;62742;52.136;4.500;2023-04-15T11:02:42;101649.56;;;15.79;46.92
72857;BME280;62742;52.136;4.500;2023-04-15T11:05:09;101658.22;;;15.87;48.17
72857;BME280;62742;52.136;4.500;2023-04-15T11:12:39;101655.41;;;16.27;46.09
72857;BME280;62742;52.136;4.500;2023-04-15T11:17:56;101659.25;;;16.50;45.85
72857;BME280;62742;52.136;4.500;2023-04-15T11:20:34;101670.53;;;16.24;46.63
72857;BME280;62742;52.136;4.500;2023-04-15T11:23:01;101670.78;;;16.80;46.44
72857;BME280;62742;52.136;4.500;2023-04-15T11:25:29;101670.25;;;17.00;46.84
72857;BME280;62742;52.136;4.500;2023-04-15T11:27:57;101678.78;;;17.12;45.63
72857;BME280;62742;52.136;4.500;2023-04-15T11:30:26;101675.09;;;16.86;47.81
72857;BME280;62742;52.136;4.500;2023-04-15T11:32:56;101682.81;;;16.28;45.42
72857;BME280;62742;52.136;4.500;2023-04-15T11:35:24;101680.25;;;16.58;46.12
72857;BME280;62742;52.136;4.500;2023-04-15T11:37:51;101676.06;;;16.49;45.06
72857;BME280;62742;52.136;4.500;2023-04-15T11:40:22;101686.69;;;16.80;44.30
72857;BME280;62742;52.136;4.500;2023-04-15T11:45:31;101698.88;;;16.22;45.12
72857;BME280;62742;52.136;4.500;2023-04-15T11:48:07;101694.97;;;16.37;45.91
72857;BME280;62742;52.136;4.500;2023-04-15T11:50:37;101699.25;;;16.41;46.73
72857;BME280;62742;52.136;4.500;2023-04-15T11:53:06;101700.31;;;17.32;47.63
72857;BME280;62742;52.136;4.500;2023-04-15T11:55:43;101709.31;;;17.56;45.60
72857;BME280;62742;52.136;4.500;2023-04-15T11:58:21;101715.63;;;17.52;46.05
72857;BME280;62742;52.136;4.500;2023-04-15T12:00:50;101704.75;;;16.35;46.17
72857;BME280;62742;52.136;4.500;2023-04-15T12:03:25;101713.34;;;16.43;47.92
72857;BME280;62742;52.136;4.500;2023-04-15T12:06:03;101718.00;;;15.60;48.36
72857;BME280;62742;52.136;4.500;2023-04-15T12:13:55;101728.66;;;15.14;52.26
72857;BME280;62742;52.136;4.500;2023-04-15T12:16:24;101740.72;;;15.71;51.14
72857;BME280;62742;52.136;4.500;2023-04-15T12:18:51;101737.97;;;15.36;51.75
72857;BME280;62742;52.136;4.500;2023-04-15T12:21:21;101750.84;;;14.62;52.85
72857;BME280;62742;52.136;4.500;2023-04-15T12:23:52;101740.47;;;14.98;52.73
72857;BME280;62742;52.136;4.500;2023-04-15T12:26:28;101752.66;;;14.57;54.78
72857;BME280;62742;52.136;4.500;2023-04-15T12:29:06;101756.13;;;14.62;55.62
72857;BME280;62742;52.136;4.500;2023-04-15T12:31:34;101760.78;;;14.46;57.70
72857;BME280;62742;52.136;4.500;2023-04-15T12:34:06;101763.59;;;15.32;56.55
72857;BME280;62742;52.136;4.500;2023-04-15T12:36:33;101766.22;;;15.33;53.11
72857;BME280;62742;52.136;4.500;2023-04-15T12:39:05;101762.66;;;15.36;54.27
72857;BME280;62742;52.136;4.500;2023-04-15T12:41:31;101781.16;;;14.92;55.13
72857;BME280;62742;52.136;4.500;2023-04-15T12:43:59;101776.69;;;15.41;55.29
72857;BME280;62742;52.136;4.500;2023-04-15T12:46:25;101769.66;;;14.95;56.42
72857;BME280;62742;52.136;4.500;2023-04-15T12:48:52;101776.78;;;15.35;55.96
72857;BME280;62742;52.136;4.500;2023-04-15T12:51:19;101788.88;;;15.48;55.83
72857;BME280;62742;52.136;4.500;2023-04-15T12:53:48;101787.88;;;15.96;54.73
72857;BME280;62742;52.136;4.500;2023-04-15T12:56:14;101795.31;;;16.19;54.01
72857;BME280;62742;52.136;4.500;2023-04-15T12:58:44;101796.78;;;15.94;55.33
72857;BME280;62742;52.136;4.500;2023-04-15T13:01:10;101797.41;;;15.63;53.54
72857;BME280;62742;52.136;4.500;2023-04-15T13:03:37;101797.47;;;16.02;56.49
72857;BME280;62742;52.136;4.500;2023-04-15T13:06:03;101806.63;;;15.88;54.02
72857;BME280;62742;52.136;4.500;2023-04-15T13:08:30;101807.38;;;15.94;52.70
72857;BME280;62742;52.136;4.500;2023-04-15T13:10:56;101802.16;;;15.91;54.31
72857;BME280;62742;52.136;4.500;2023-04-15T13:13:23;101810.13;;;16.28;53.12
72857;BME280;62742;52.136;4.500;2023-04-15T13:15:49;101817.66;;;15.65;53.57
72857;BME280;62742;52.136;4.500;2023-04-15T13:18:15;101816.25;;;15.47;54.93